Richards, Texas
Current Conditions -  °F | °C
As of 9:53 AM on Wednesday 26 Nov 2014 (Local Time) from KUTS Reporting Station
Clear Clear  
Wind Chill: 60°   Ceiling: Unl
Heat Index: 60°   Visibility: 10mi
Dew Point: 33°   Wind: 14mph
Humidity: 36%   Direction: 230°SW
Pressure: 30.21"   Gusts: 25mph
Location:  30.54°N, 95.84°W
Report Text: KUTS 261553Z AUTO 23012G22KT 10SM CLR 16/01 A3021 RMK AO2 SLP227 T01560006
Loading
Personal Weather Stations






























Interactive Weather Map New forecast layout! Learn more

10-Day Weather Forecast

Advertisements
Track Severe Weather on mobile